sensor_id;sensor_type;location;lat;lon;timestamp;P1;durP1;ratioP1;P2;durP2;ratioP2
20462;SDS011;10390;53.566;9.980;2023-03-07T00:01:50;6.25;;;4.70;;
20462;SDS011;10390;53.566;9.980;2023-03-07T00:04:16;5.50;;;5.00;;
20462;SDS011;10390;53.566;9.980;2023-03-07T00:06:42;6.38;;;5.05;;
20462;SDS011;10390;53.566;9.980;2023-03-07T00:09:07;5.95;;;5.28;;
20462;SDS011;10390;53.566;9.980;2023-03-07T00:11:33;5.65;;;5.13;;
20462;SDS011;10390;53.566;9.980;2023-03-07T00:13:59;5.28;;;4.78;;
20462;SDS011;10390;53.566;9.980;2023-03-07T00:16:24;5.32;;;4.82;;
20462;SDS011;10390;53.566;9.980;2023-03-07T00:18:50;5.40;;;4.90;;
20462;SDS011;10390;53.566;9.980;2023-03-07T00:21:17;5.20;;;4.70;;
20462;SDS011;10390;53.566;9.980;2023-03-07T00:23:45;5.68;;;5.00;;
20462;SDS011;10390;53.566;9.980;2023-03-07T00:26:15;5.85;;;5.32;;
20462;SDS011;10390;53.566;9.980;2023-03-07T00:28:43;5.60;;;5.10;;
20462;SDS011;10390;53.566;9.980;2023-03-07T00:31:10;5.20;;;4.70;;
20462;SDS011;10390;53.566;9.980;2023-03-07T00:33:36;6.05;;;5.45;;
20462;SDS011;10390;53.566;9.980;2023-03-07T00:36:04;5.20;;;4.70;;
20462;SDS011;10390;53.566;9.980;2023-03-07T00:38:31;5.60;;;5.00;;
20462;SDS011;10390;53.566;9.980;2023-03-07T00:41:03;5.47;;;4.97;;
20462;SDS011;10390;53.566;9.980;2023-03-07T00:43:30;6.35;;;5.15;;
20462;SDS011;10390;53.566;9.980;2023-03-07T00:45:56;5.32;;;4.80;;
20462;SDS011;10390;53.566;9.980;2023-03-07T00:48:23;5.60;;;5.00;;
20462;SDS011;10390;53.566;9.980;2023-03-07T00:50:49;5.40;;;4.90;;
20462;SDS011;10390;53.566;9.980;2023-03-07T00:53:16;5.90;;;5.40;;
20462;SDS011;10390;53.566;9.980;2023-03-07T00:55:52;5.55;;;4.40;;
20462;SDS011;10390;53.566;9.980;2023-03-07T00:58:22;5.47;;;4.30;;
20462;SDS011;10390;53.566;9.980;2023-03-07T01:00:48;4.78;;;4.38;;
20462;SDS011;10390;53.566;9.980;2023-03-07T01:03:14;5.97;;;4.47;;
20462;SDS011;10390;53.566;9.980;2023-03-07T01:05:39;4.97;;;4.47;;
20462;SDS011;10390;53.566;9.980;2023-03-07T01:08:05;5.28;;;4.78;;
20462;SDS011;10390;53.566;9.980;2023-03-07T01:10:31;4.95;;;4.43;;
20462;SDS011;10390;53.566;9.980;2023-03-07T01:12:57;4.82;;;4.32;;
20462;SDS011;10390;53.566;9.980;2023-03-07T01:15:23;5.35;;;4.85;;
20462;SDS011;10390;53.566;9.980;2023-03-07T01:17:49;5.43;;;4.93;;
20462;SDS011;10390;53.566;9.980;2023-03-07T01:20:14;5.53;;;5.03;;
20462;SDS011;10390;53.566;9.980;2023-03-07T01:22:40;5.30;;;4.80;;
20462;SDS011;10390;53.566;9.980;2023-03-07T01:25:06;5.00;;;4.50;;
20462;SDS011;10390;53.566;9.980;2023-03-07T01:27:32;5.35;;;4.85;;
20462;SDS011;10390;53.566;9.980;2023-03-07T01:29:57;5.88;;;5.20;;
20462;SDS011;10390;53.566;9.980;2023-03-07T01:32:23;5.45;;;4.95;;
20462;SDS011;10390;53.566;9.980;2023-03-07T01:34:49;5.85;;;5.22;;
20462;SDS011;10390;53.566;9.980;2023-03-07T01:37:14;5.70;;;5.20;;
20462;SDS011;10390;53.566;9.980;2023-03-07T01:39:40;5.80;;;5.18;;
20462;SDS011;10390;53.566;9.980;2023-03-07T01:42:07;5.82;;;5.32;;
20462;SDS011;10390;53.566;9.980;2023-03-07T01:47:33;5.85;;;5.35;;
20462;SDS011;10390;53.566;9.980;2023-03-07T01:49:59;5.57;;;5.07;;
20462;SDS011;10390;53.566;9.980;2023-03-07T01:52:31;6.03;;;5.43;;
20462;SDS011;10390;53.566;9.980;2023-03-07T01:55:11;5.50;;;5.00;;
20462;SDS011;10390;53.566;9.980;2023-03-07T01:57:42;5.28;;;4.78;;
20462;SDS011;10390;53.566;9.980;2023-03-07T02:00:10;5.40;;;4.90;;
20462;SDS011;10390;53.566;9.980;2023-03-07T02:02:43;5.45;;;4.95;;
20462;SDS011;10390;53.566;9.980;2023-03-07T02:05:20;5.28;;;4.78;;
20462;SDS011;10390;53.566;9.980;2023-03-07T02:07:52;5.15;;;4.65;;
20462;SDS011;10390;53.566;9.980;2023-03-07T02:10:20;5.40;;;4.88;;
20462;SDS011;10390;53.566;9.980;2023-03-07T02:12:47;5.47;;;4.97;;
20462;SDS011;10390;53.566;9.980;2023-03-07T02:15:15;5.32;;;4.50;;
20462;SDS011;10390;53.566;9.980;2023-03-07T02:17:41;6.15;;;4.65;;
20462;SDS011;10390;53.566;9.980;2023-03-07T02:22:37;5.85;;;5.35;;
20462;SDS011;10390;53.566;9.980;2023-03-07T02:27:30;5.47;;;4.97;;
20462;SDS011;10390;53.566;9.980;2023-03-07T02:29:58;5.70;;;5.20;;
20462;SDS011;10390;53.566;9.980;2023-03-07T02:32:23;6.25;;;5.30;;
20462;SDS011;10390;53.566;9.980;2023-03-07T02:34:49;5.50;;;4.85;;
20462;SDS011;10390;53.566;9.980;2023-03-07T02:37:16;5.68;;;5.18;;
20462;SDS011;10390;53.566;9.980;2023-03-07T02:39:46;5.00;;;4.50;;
20462;SDS011;10390;53.566;9.980;2023-03-07T02:42:16;4.95;;;4.50;;
20462;SDS011;10390;53.566;9.980;2023-03-07T02:44:46;5.20;;;4.70;;
20462;SDS011;10390;53.566;9.980;2023-03-07T02:47:19;5.45;;;4.95;;
20462;SDS011;10390;53.566;9.980;2023-03-07T02:49:45;5.32;;;4.82;;
20462;SDS011;10390;53.566;9.980;2023-03-07T02:52:11;5.30;;;4.80;;
20462;SDS011;10390;53.566;9.980;2023-03-07T02:54:36;5.43;;;4.20;;
20462;SDS011;10390;53.566;9.980;2023-03-07T02:57:02;5.22;;;4.60;;
20462;SDS011;10390;53.566;9.980;2023-03-07T02:59:28;4.90;;;4.40;;
20462;SDS011;10390;53.566;9.980;2023-03-07T03:01:54;4.65;;;4.15;;
20462;SDS011;10390;53.566;9.980;2023-03-07T03:04:21;4.97;;;4.25;;
20462;SDS011;10390;53.566;9.980;2023-03-07T03:06:47;5.00;;;4.53;;
20462;SDS011;10390;53.566;9.980;2023-03-07T03:09:12;4.82;;;4.35;;
20462;SDS011;10390;53.566;9.980;2023-03-07T03:11:38;4.90;;;4.40;;
20462;SDS011;10390;53.566;9.980;2023-03-07T03:14:03;4.88;;;4.40;;
20462;SDS011;10390;53.566;9.980;2023-03-07T03:16:29;4.60;;;4.10;;
20462;SDS011;10390;53.566;9.980;2023-03-07T03:18:55;4.63;;;4.00;;
20462;SDS011;10390;53.566;9.980;2023-03-07T03:21:21;5.03;;;3.75;;
20462;SDS011;10390;53.566;9.980;2023-03-07T03:23:46;4.93;;;4.20;;
20462;SDS011;10390;53.566;9.980;2023-03-07T03:26:12;4.40;;;3.92;;
20462;SDS011;10390;53.566;9.980;2023-03-07T03:28:37;4.30;;;3.70;;
20462;SDS011;10390;53.566;9.980;2023-03-07T03:31:07;4.15;;;3.72;;
20462;SDS011;10390;53.566;9.980;2023-03-07T03:33:39;3.80;;;3.40;;
20462;SDS011;10390;53.566;9.980;2023-03-07T03:36:09;4.13;;;3.70;;
20462;SDS011;10390;53.566;9.980;2023-03-07T03:38:37;4.72;;;4.22;;
20462;SDS011;10390;53.566;9.980;2023-03-07T03:41:06;4.53;;;3.83;;
20462;SDS011;10390;53.566;9.980;2023-03-07T03:43:35;4.18;;;3.72;;
20462;SDS011;10390;53.566;9.980;2023-03-07T03:46:00;5.20;;;3.28;;
20462;SDS011;10390;53.566;9.980;2023-03-07T03:48:26;4.18;;;3.53;;
20462;SDS011;10390;53.566;9.980;2023-03-07T03:51:05;4.55;;;3.90;;
20462;SDS011;10390;53.566;9.980;2023-03-07T03:53:33;4.00;;;3.20;;
20462;SDS011;10390;53.566;9.980;2023-03-07T03:56:07;4.25;;;3.60;;
20462;SDS011;10390;53.566;9.980;2023-03-07T03:58:36;4.20;;;3.80;;
20462;SDS011;10390;53.566;9.980;2023-03-07T04:01:06;4.50;;;3.95;;
20462;SDS011;10390;53.566;9.980;2023-03-07T04:03:33;4.70;;;3.38;;
20462;SDS011;10390;53.566;9.980;2023-03-07T04:06:02;4.10;;;3.70;;
20462;SDS011;10390;53.566;9.980;2023-03-07T04:08:29;4.65;;;3.58;;
20462;SDS011;10390;53.566;9.980;2023-03-07T04:10:55;4.35;;;3.85;;
20462;SDS011;10390;53.566;9.980;2023-03-07T04:13:21;4.68;;;3.63;;
20462;SDS011;10390;53.566;9.980;2023-03-07T04:15:46;4.25;;;3.63;;
20462;SDS011;10390;53.566;9.980;2023-03-07T04:18:12;5.65;;;3.88;;
20462;SDS011;10390;53.566;9.980;2023-03-07T04:20:37;4.63;;;4.15;;
20462;SDS011;10390;53.566;9.980;2023-03-07T04:23:03;4.45;;;3.63;;
20462;SDS011;10390;53.566;9.980;2023-03-07T04:25:29;4.40;;;3.67;;
20462;SDS011;10390;53.566;9.980;2023-03-07T04:27:54;4.38;;;3.90;;
20462;SDS011;10390;53.566;9.980;2023-03-07T04:30:20;4.13;;;3.70;;
20462;SDS011;10390;53.566;9.980;2023-03-07T04:32:46;4.20;;;3.65;;
20462;SDS011;10390;53.566;9.980;2023-03-07T04:35:11;4.25;;;3.83;;
20462;SDS011;10390;53.566;9.980;2023-03-07T04:37:37;4.20;;;3.80;;
20462;SDS011;10390;53.566;9.980;2023-03-07T04:40:02;4.47;;;4.07;;
20462;SDS011;10390;53.566;9.980;2023-03-07T04:42:28;4.32;;;3.92;;
20462;SDS011;10390;53.566;9.980;2023-03-07T04:44:54;4.35;;;3.85;;
20462;SDS011;10390;53.566;9.980;2023-03-07T04:47:19;4.30;;;3.90;;
20462;SDS011;10390;53.566;9.980;2023-03-07T04:49:45;4.60;;;4.00;;
20462;SDS011;10390;53.566;9.980;2023-03-07T04:52:11;4.20;;;3.80;;
20462;SDS011;10390;53.566;9.980;2023-03-07T04:54:36;4.40;;;4.00;;
20462;SDS011;10390;53.566;9.980;2023-03-07T04:57:02;4.82;;;4.32;;
20462;SDS011;10390;53.566;9.980;2023-03-07T04:59:28;4.90;;;4.40;;
20462;SDS011;10390;53.566;9.980;2023-03-07T05:01:53;5.35;;;4.10;;
20462;SDS011;10390;53.566;9.980;2023-03-07T05:04:19;4.88;;;4.38;;
20462;SDS011;10390;53.566;9.980;2023-03-07T05:06:45;4.90;;;4.40;;
20462;SDS011;10390;53.566;9.980;2023-03-07T05:09:10;4.35;;;3.95;;
20462;SDS011;10390;53.566;9.980;2023-03-07T05:11:36;4.70;;;4.20;;
20462;SDS011;10390;53.566;9.980;2023-03-07T05:14:01;4.30;;;3.88;;
20462;SDS011;10390;53.566;9.980;2023-03-07T05:16:27;4.20;;;3.80;;
20462;SDS011;10390;53.566;9.980;2023-03-07T05:18:52;4.70;;;4.20;;
20462;SDS011;10390;53.566;9.980;2023-03-07T05:21:18;4.68;;;3.70;;
20462;SDS011;10390;53.566;9.980;2023-03-07T05:23:43;4.53;;;4.13;;
20462;SDS011;10390;53.566;9.980;2023-03-07T05:26:09;4.80;;;4.25;;
20462;SDS011;10390;53.566;9.980;2023-03-07T05:28:35;4.22;;;3.83;;
20462;SDS011;10390;53.566;9.980;2023-03-07T05:31:00;4.15;;;3.75;;
20462;SDS011;10390;53.566;9.980;2023-03-07T05:33:26;4.75;;;4.30;;
20462;SDS011;10390;53.566;9.980;2023-03-07T05:35:51;4.43;;;3.67;;
20462;SDS011;10390;53.566;9.980;2023-03-07T05:38:19;4.30;;;3.53;;
20462;SDS011;10390;53.566;9.980;2023-03-07T05:40:45;4.20;;;3.80;;
20462;SDS011;10390;53.566;9.980;2023-03-07T05:43:10;4.15;;;3.75;;
20462;SDS011;10390;53.566;9.980;2023-03-07T05:45:36;4.07;;;3.50;;
20462;SDS011;10390;53.566;9.980;2023-03-07T05:48:01;4.47;;;4.07;;
20462;SDS011;10390;53.566;9.980;2023-03-07T05:50:27;4.47;;;4.07;;
20462;SDS011;10390;53.566;9.980;2023-03-07T05:52:53;4.40;;;4.00;;
20462;SDS011;10390;53.566;9.980;2023-03-07T05:55:18;4.50;;;4.10;;
20462;SDS011;10390;53.566;9.980;2023-03-07T05:57:44;4.45;;;3.90;;
20462;SDS011;10390;53.566;9.980;2023-03-07T06:00:10;4.57;;;3.85;;
20462;SDS011;10390;53.566;9.980;2023-03-07T06:02:36;5.05;;;4.55;;
20462;SDS011;10390;53.566;9.980;2023-03-07T06:05:01;4.38;;;3.97;;
20462;SDS011;10390;53.566;9.980;2023-03-07T06:07:27;4.25;;;3.80;;
20462;SDS011;10390;53.566;9.980;2023-03-07T06:09:53;4.75;;;4.35;;
20462;SDS011;10390;53.566;9.980;2023-03-07T06:12:18;5.47;;;4.32;;
20462;SDS011;10390;53.566;9.980;2023-03-07T06:14:44;4.43;;;4.03;;
20462;SDS011;10390;53.566;9.980;2023-03-07T06:17:09;4.47;;;3.95;;
20462;SDS011;10390;53.566;9.980;2023-03-07T06:19:35;4.65;;;4.25;;
20462;SDS011;10390;53.566;9.980;2023-03-07T06:22:01;4.20;;;3.80;;
20462;SDS011;10390;53.566;9.980;2023-03-07T06:24:27;4.80;;;4.38;;
20462;SDS011;10390;53.566;9.980;2023-03-07T06:26:52;5.38;;;4.88;;
20462;SDS011;10390;53.566;9.980;2023-03-07T06:29:18;4.57;;;4.18;;
20462;SDS011;10390;53.566;9.980;2023-03-07T06:31:44;5.03;;;4.20;;
20462;SDS011;10390;53.566;9.980;2023-03-07T06:34:09;4.90;;;4.40;;
20462;SDS011;10390;53.566;9.980;2023-03-07T06:36:35;4.82;;;4.32;;
20462;SDS011;10390;53.566;9.980;2023-03-07T06:39:00;4.00;;;3.40;;
20462;SDS011;10390;53.566;9.980;2023-03-07T06:41:26;4.05;;;3.60;;
20462;SDS011;10390;53.566;9.980;2023-03-07T06:43:52;4.10;;;3.65;;
20462;SDS011;10390;53.566;9.980;2023-03-07T06:46:18;4.20;;;3.42;;
20462;SDS011;10390;53.566;9.980;2023-03-07T06:48:44;4.32;;;3.80;;
20462;SDS011;10390;53.566;9.980;2023-03-07T06:51:10;4.25;;;3.55;;
20462;SDS011;10390;53.566;9.980;2023-03-07T06:53:36;4.65;;;4.22;;
20462;SDS011;10390;53.566;9.980;2023-03-07T06:56:02;4.50;;;4.10;;
20462;SDS011;10390;53.566;9.980;2023-03-07T06:58:28;4.72;;;4.18;;
20462;SDS011;10390;53.566;9.980;2023-03-07T07:00:53;5.03;;;4.53;;
20462;SDS011;10390;53.566;9.980;2023-03-07T07:03:19;4.57;;;4.10;;
20462;SDS011;10390;53.566;9.980;2023-03-07T07:05:45;5.15;;;4.65;;
20462;SDS011;10390;53.566;9.980;2023-03-07T07:08:11;4.43;;;4.03;;
20462;SDS011;10390;53.566;9.980;2023-03-07T07:10:36;4.60;;;4.20;;
20462;SDS011;10390;53.566;9.980;2023-03-07T07:13:02;4.20;;;3.80;;
20462;SDS011;10390;53.566;9.980;2023-03-07T07:15:29;4.25;;;3.72;;
20462;SDS011;10390;53.566;9.980;2023-03-07T07:17:55;4.22;;;3.83;;
20462;SDS011;10390;53.566;9.980;2023-03-07T07:20:20;4.82;;;4.32;;
20462;SDS011;10390;53.566;9.980;2023-03-07T07:22:46;4.38;;;3.97;;
20462;SDS011;10390;53.566;9.980;2023-03-07T07:25:12;4.75;;;4.25;;
20462;SDS011;10390;53.566;9.980;2023-03-07T07:27:38;4.32;;;3.92;;
20462;SDS011;10390;53.566;9.980;2023-03-07T07:30:04;4.78;;;4.18;;
20462;SDS011;10390;53.566;9.980;2023-03-07T07:32:31;4.90;;;4.40;;
20462;SDS011;10390;53.566;9.980;2023-03-07T07:34:56;4.25;;;3.78;;
20462;SDS011;10390;53.566;9.980;2023-03-07T07:37:22;4.72;;;4.32;;
20462;SDS011;10390;53.566;9.980;2023-03-07T07:39:48;4.38;;;3.97;;
20462;SDS011;10390;53.566;9.980;2023-03-07T07:42:14;4.63;;;4.10;;
20462;SDS011;10390;53.566;9.980;2023-03-07T07:44:40;4.72;;;4.20;;
20462;SDS011;10390;53.566;9.980;2023-03-07T07:47:06;4.18;;;3.78;;
20462;SDS011;10390;53.566;9.980;2023-03-07T07:49:31;4.43;;;4.03;;
20462;SDS011;10390;53.566;9.980;2023-03-07T07:51:57;5.35;;;4.80;;
20462;SDS011;10390;53.566;9.980;2023-03-07T07:54:23;4.90;;;4.50;;
20462;SDS011;10390;53.566;9.980;2023-03-07T07:56:49;4.90;;;4.40;;
20462;SDS011;10390;53.566;9.980;2023-03-07T07:59:15;4.38;;;3.90;;
20462;SDS011;10390;53.566;9.980;2023-03-07T08:01:40;5.05;;;4.55;;
20462;SDS011;10390;53.566;9.980;2023-03-07T08:04:06;5.60;;;4.60;;
20462;SDS011;10390;53.566;9.980;2023-03-07T08:06:31;5.90;;;5.40;;
20462;SDS011;10390;53.566;9.980;2023-03-07T08:08:57;4.95;;;3.90;;
20462;SDS011;10390;53.566;9.980;2023-03-07T08:11:24;4.18;;;3.78;;
20462;SDS011;10390;53.566;9.980;2023-03-07T08:13:50;4.68;;;4.25;;
20462;SDS011;10390;53.566;9.980;2023-03-07T08:16:17;4.40;;;4.00;;
20462;SDS011;10390;53.566;9.980;2023-03-07T08:18:51;4.78;;;4.30;;
20462;SDS011;10390;53.566;9.980;2023-03-07T08:21:18;4.93;;;4.43;;
20462;SDS011;10390;53.566;9.980;2023-03-07T08:23:45;4.82;;;4.32;;
20462;SDS011;10390;53.566;9.980;2023-03-07T08:26:10;4.65;;;4.00;;
20462;SDS011;10390;53.566;9.980;2023-03-07T08:28:37;4.30;;;3.90;;
20462;SDS011;10390;53.566;9.980;2023-03-07T08:31:19;4.93;;;4.43;;
20462;SDS011;10390;53.566;9.980;2023-03-07T08:33:48;4.93;;;4.43;;
20462;SDS011;10390;53.566;9.980;2023-03-07T08:36:14;5.10;;;4.60;;
20462;SDS011;10390;53.566;9.980;2023-03-07T08:38:40;5.40;;;4.90;;
20462;SDS011;10390;53.566;9.980;2023-03-07T08:41:07;4.60;;;4.20;;
20462;SDS011;10390;53.566;9.980;2023-03-07T08:43:33;4.93;;;4.35;;
20462;SDS011;10390;53.566;9.980;2023-03-07T08:46:01;5.10;;;4.60;;
20462;SDS011;10390;53.566;9.980;2023-03-07T08:48:27;5.15;;;4.45;;
20462;SDS011;10390;53.566;9.980;2023-03-07T08:50:53;5.35;;;4.60;;
20462;SDS011;10390;53.566;9.980;2023-03-07T08:53:19;4.78;;;4.28;;
20462;SDS011;10390;53.566;9.980;2023-03-07T08:55:45;4.82;;;4.43;;
20462;SDS011;10390;53.566;9.980;2023-03-07T08:58:11;4.60;;;4.20;;
20462;SDS011;10390;53.566;9.980;2023-03-07T09:00:37;4.63;;;3.92;;
20462;SDS011;10390;53.566;9.980;2023-03-07T09:03:04;5.55;;;4.03;;
20462;SDS011;10390;53.566;9.980;2023-03-07T09:05:30;4.70;;;4.30;;
20462;SDS011;10390;53.566;9.980;2023-03-07T09:07:56;5.20;;;4.70;;
20462;SDS011;10390;53.566;9.980;2023-03-07T09:10:22;5.07;;;4.57;;
20462;SDS011;10390;53.566;9.980;2023-03-07T09:12:50;4.90;;;4.20;;
20462;SDS011;10390;53.566;9.980;2023-03-07T09:15:16;5.20;;;4.70;;
20462;SDS011;10390;53.566;9.980;2023-03-07T09:17:42;4.88;;;4.38;;
20462;SDS011;10390;53.566;9.980;2023-03-07T09:20:08;5.07;;;4.57;;
20462;SDS011;10390;53.566;9.980;2023-03-07T09:22:35;5.20;;;4.70;;
20462;SDS011;10390;53.566;9.980;2023-03-07T09:25:01;5.20;;;4.50;;
20462;SDS011;10390;53.566;9.980;2023-03-07T09:27:27;5.22;;;4.72;;
20462;SDS011;10390;53.566;9.980;2023-03-07T09:29:53;6.07;;;5.50;;
20462;SDS011;10390;53.566;9.980;2023-03-07T09:32:18;5.38;;;4.72;;
20462;SDS011;10390;53.566;9.980;2023-03-07T09:34:44;5.18;;;4.68;;
20462;SDS011;10390;53.566;9.980;2023-03-07T09:37:09;5.75;;;5.15;;
20462;SDS011;10390;53.566;9.980;2023-03-07T09:39:36;5.47;;;4.97;;
20462;SDS011;10390;53.566;9.980;2023-03-07T09:52:59;4.90;;;4.40;;
20462;SDS011;10390;53.566;9.980;2023-03-07T09:55:26;6.40;;;4.95;;
20462;SDS011;10390;53.566;9.980;2023-03-07T09:57:56;5.13;;;4.43;;
20462;SDS011;10390;53.566;9.980;2023-03-07T10:03:19;5.93;;;4.25;;
20462;SDS011;10390;53.566;9.980;2023-03-07T10:08:39;5.70;;;4.47;;
20462;SDS011;10390;53.566;9.980;2023-03-07T10:11:10;4.40;;;4.00;;
20462;SDS011;10390;53.566;9.980;2023-03-07T10:14:02;4.85;;;4.13;;
20462;SDS011;10390;53.566;9.980;2023-03-07T10:24:42;5.57;;;4.25;;
20462;SDS011;10390;53.566;9.980;2023-03-07T10:27:12;8.40;;;4.63;;
20462;SDS011;10390;53.566;9.980;2023-03-07T10:29:48;5.90;;;4.28;;
20462;SDS011;10390;53.566;9.980;2023-03-07T10:34:58;5.60;;;4.65;;
20462;SDS011;10390;53.566;9.980;2023-03-07T10:40:23;5.72;;;4.22;;
20462;SDS011;10390;53.566;9.980;2023-03-07T10:42:51;5.75;;;4.70;;
20462;SDS011;10390;53.566;9.980;2023-03-07T10:45:18;5.03;;;4.20;;
20462;SDS011;10390;53.566;9.980;2023-03-07T10:47:45;5.55;;;4.88;;
20462;SDS011;10390;53.566;9.980;2023-03-07T10:52:54;5.25;;;4.75;;
20462;SDS011;10390;53.566;9.980;2023-03-07T10:55:32;5.90;;;5.10;;
20462;SDS011;10390;53.566;9.980;2023-03-07T10:58:12;6.78;;;4.75;;
20462;SDS011;10390;53.566;9.980;2023-03-07T11:00:59;5.00;;;4.43;;
20462;SDS011;10390;53.566;9.980;2023-03-07T11:05:53;5.97;;;5.38;;
20462;SDS011;10390;53.566;9.980;2023-03-07T11:08:26;6.18;;;4.60;;
20462;SDS011;10390;53.566;9.980;2023-03-07T11:10:58;5.65;;;4.82;;
20462;SDS011;10390;53.566;9.980;2023-03-07T11:13:24;7.05;;;5.07;;
20462;SDS011;10390;53.566;9.980;2023-03-07T11:15:51;5.40;;;4.53;;
20462;SDS011;10390;53.566;9.980;2023-03-07T11:18:41;5.00;;;4.50;;
20462;SDS011;10390;53.566;9.980;2023-03-07T11:21:29;8.73;;;4.60;;
20462;SDS011;10390;53.566;9.980;2023-03-07T11:24:04;5.90;;;4.43;;
20462;SDS011;10390;53.566;9.980;2023-03-07T11:26:41;5.03;;;4.00;;
20462;SDS011;10390;53.566;9.980;2023-03-07T11:29:10;5.22;;;4.22;;
20462;SDS011;10390;53.566;9.980;2023-03-07T11:31:51;5.85;;;4.28;;
20462;SDS011;10390;53.566;9.980;2023-03-07T11:42:29;4.82;;;4.32;;
20462;SDS011;10390;53.566;9.980;2023-03-07T11:45:18;5.60;;;3.97;;
20462;SDS011;10390;53.566;9.980;2023-03-07T11:48:04;5.00;;;4.50;;
20462;SDS011;10390;53.566;9.980;2023-03-07T11:50:35;6.78;;;4.43;;
20462;SDS011;10390;53.566;9.980;2023-03-07T12:10:03;5.60;;;4.03;;
20462;SDS011;10390;53.566;9.980;2023-03-07T12:12:35;4.75;;;3.90;;
20462;SDS011;10390;53.566;9.980;2023-03-07T12:20:59;5.05;;;4.40;;
20462;SDS011;10390;53.566;9.980;2023-03-07T12:23:46;5.20;;;4.70;;
20462;SDS011;10390;53.566;9.980;2023-03-07T12:26:24;5.43;;;4.40;;
20462;SDS011;10390;53.566;9.980;2023-03-07T12:29:00;5.00;;;4.40;;
20462;SDS011;10390;53.566;9.980;2023-03-07T12:31:50;4.72;;;3.50;;
20462;SDS011;10390;53.566;9.980;2023-03-07T12:34:37;5.38;;;3.97;;
20462;SDS011;10390;53.566;9.980;2023-03-07T12:47:42;4.30;;;3.90;;
20462;SDS011;10390;53.566;9.980;2023-03-07T12:53:13;4.38;;;3.97;;
20462;SDS011;10390;53.566;9.980;2023-03-07T12:55:49;5.38;;;4.10;;
20462;SDS011;10390;53.566;9.980;2023-03-07T12:58:39;5.28;;;3.72;;
20462;SDS011;10390;53.566;9.980;2023-03-07T13:06:42;5.05;;;3.83;;
20462;SDS011;10390;53.566;9.980;2023-03-07T13:09:15;5.35;;;4.25;;
20462;SDS011;10390;53.566;9.980;2023-03-07T13:14:56;4.68;;;3.95;;
20462;SDS011;10390;53.566;9.980;2023-03-07T13:19:58;4.55;;;4.07;;
20462;SDS011;10390;53.566;9.980;2023-03-07T13:24:52;5.30;;;4.10;;
20462;SDS011;10390;53.566;9.980;2023-03-07T13:27:23;5.22;;;4.10;;
20462;SDS011;10390;53.566;9.980;2023-03-07T13:40:22;4.60;;;3.85;;
20462;SDS011;10390;53.566;9.980;2023-03-07T13:43:01;5.13;;;4.40;;
20462;SDS011;10390;53.566;9.980;2023-03-07T13:45:48;4.50;;;3.70;;
20462;SDS011;10390;53.566;9.980;2023-03-07T13:53:21;4.50;;;4.00;;
20462;SDS011;10390;53.566;9.980;2023-03-07T13:56:01;4.47;;;4.07;;
20462;SDS011;10390;53.566;9.980;2023-03-07T13:58:56;5.65;;;4.80;;
20462;SDS011;10390;53.566;9.980;2023-03-07T14:01:31;6.05;;;4.70;;
20462;SDS011;10390;53.566;9.980;2023-03-07T14:04:21;5.47;;;4.60;;
20462;SDS011;10390;53.566;9.980;2023-03-07T14:06:55;4.65;;;4.25;;
20462;SDS011;10390;53.566;9.980;2023-03-07T14:09:29;5.05;;;4.55;;
20462;SDS011;10390;53.566;9.980;2023-03-07T14:18:01;5.65;;;5.15;;
20462;SDS011;10390;53.566;9.980;2023-03-07T14:26:07;5.25;;;4.40;;
20462;SDS011;10390;53.566;9.980;2023-03-07T14:28:56;4.15;;;3.75;;
20462;SDS011;10390;53.566;9.980;2023-03-07T14:31:28;4.40;;;4.00;;
20462;SDS011;10390;53.566;9.980;2023-03-07T14:34:01;4.47;;;4.07;;
20462;SDS011;10390;53.566;9.980;2023-03-07T14:36:51;5.10;;;4.55;;
20462;SDS011;10390;53.566;9.980;2023-03-07T14:39:32;4.68;;;4.28;;
20462;SDS011;10390;53.566;9.980;2023-03-07T14:42:13;5.00;;;4.60;;
20462;SDS011;10390;53.566;9.980;2023-03-07T14:50:27;4.40;;;4.00;;
20462;SDS011;10390;53.566;9.980;2023-03-07T14:53:36;4.50;;;3.97;;
20462;SDS011;10390;53.566;9.980;2023-03-07T14:55:54;4.78;;;3.97;;
20462;SDS011;10390;53.566;9.980;2023-03-07T14:58:22;5.00;;;4.50;;
20462;SDS011;10390;53.566;9.980;2023-03-07T15:01:27;5.22;;;4.80;;
20462;SDS011;10390;53.566;9.980;2023-03-07T15:03:47;5.65;;;5.15;;
20462;SDS011;10390;53.566;9.980;2023-03-07T15:06:18;4.88;;;4.47;;
20462;SDS011;10390;53.566;9.980;2023-03-07T15:08:48;4.40;;;4.00;;
20462;SDS011;10390;53.566;9.980;2023-03-07T15:14:02;5.40;;;4.90;;
20462;SDS011;10390;53.566;9.980;2023-03-07T15:16:50;4.90;;;4.50;;
20462;SDS011;10390;53.566;9.980;2023-03-07T15:19:20;4.90;;;4.50;;
20462;SDS011;10390;53.566;9.980;2023-03-07T15:21:57;4.20;;;3.80;;
20462;SDS011;10390;53.566;9.980;2023-03-07T15:26:51;4.30;;;3.90;;
20462;SDS011;10390;53.566;9.980;2023-03-07T15:29:21;4.53;;;3.90;;
20462;SDS011;10390;53.566;9.980;2023-03-07T15:34:38;4.55;;;4.15;;
20462;SDS011;10390;53.566;9.980;2023-03-07T15:37:22;4.28;;;3.88;;
20462;SDS011;10390;53.566;9.980;2023-03-07T15:42:25;4.35;;;3.95;;
20462;SDS011;10390;53.566;9.980;2023-03-07T15:44:55;4.90;;;4.38;;
20462;SDS011;10390;53.566;9.980;2023-03-07T15:47:23;4.75;;;4.20;;
20462;SDS011;10390;53.566;9.980;2023-03-07T15:49:51;4.45;;;4.00;;
20462;SDS011;10390;53.566;9.980;2023-03-07T15:54:47;4.57;;;4.07;;
20462;SDS011;10390;53.566;9.980;2023-03-07T15:57:29;4.20;;;3.80;;
20462;SDS011;10390;53.566;9.980;2023-03-07T16:00:02;4.28;;;3.60;;
20462;SDS011;10390;53.566;9.980;2023-03-07T16:04:58;4.07;;;3.67;;
20462;SDS011;10390;53.566;9.980;2023-03-07T16:07:25;4.25;;;3.85;;
20462;SDS011;10390;53.566;9.980;2023-03-07T16:09:50;4.00;;;3.60;;
20462;SDS011;10390;53.566;9.980;2023-03-07T16:12:17;4.68;;;4.15;;
20462;SDS011;10390;53.566;9.980;2023-03-07T16:14:48;4.82;;;3.80;;
20462;SDS011;10390;53.566;9.980;2023-03-07T16:17:19;4.35;;;3.50;;
20462;SDS011;10390;53.566;9.980;2023-03-07T16:19:57;4.00;;;3.30;;
20462;SDS011;10390;53.566;9.980;2023-03-07T16:22:23;4.05;;;3.40;;
20462;SDS011;10390;53.566;9.980;2023-03-07T16:24:49;4.03;;;3.63;;
20462;SDS011;10390;53.566;9.980;2023-03-07T16:27:19;4.82;;;3.50;;
20462;SDS011;10390;53.566;9.980;2023-03-07T16:29:46;4.00;;;3.60;;
20462;SDS011;10390;53.566;9.980;2023-03-07T16:32:13;4.43;;;3.45;;
20462;SDS011;10390;53.566;9.980;2023-03-07T16:34:41;3.80;;;3.28;;
20462;SDS011;10390;53.566;9.980;2023-03-07T16:37:07;4.25;;;3.60;;
20462;SDS011;10390;53.566;9.980;2023-03-07T16:39:33;4.30;;;3.90;;
20462;SDS011;10390;53.566;9.980;2023-03-07T16:41:58;4.60;;;4.20;;
20462;SDS011;10390;53.566;9.980;2023-03-07T16:44:24;3.92;;;3.50;;
20462;SDS011;10390;53.566;9.980;2023-03-07T16:49:28;4.10;;;3.70;;
20462;SDS011;10390;53.566;9.980;2023-03-07T16:51:54;3.75;;;3.22;;
20462;SDS011;10390;53.566;9.980;2023-03-07T16:54:19;4.20;;;3.80;;
20462;SDS011;10390;53.566;9.980;2023-03-07T16:56:46;4.35;;;3.80;;
20462;SDS011;10390;53.566;9.980;2023-03-07T16:59:15;4.03;;;3.60;;
20462;SDS011;10390;53.566;9.980;2023-03-07T17:01:43;5.40;;;4.40;;
20462;SDS011;10390;53.566;9.980;2023-03-07T17:04:11;4.25;;;3.85;;
20462;SDS011;10390;53.566;9.980;2023-03-07T17:06:37;4.70;;;4.30;;
20462;SDS011;10390;53.566;9.980;2023-03-07T17:09:03;7.50;;;4.68;;
20462;SDS011;10390;53.566;9.980;2023-03-07T17:11:30;5.00;;;4.50;;
20462;SDS011;10390;53.566;9.980;2023-03-07T17:13:57;4.90;;;4.47;;
20462;SDS011;10390;53.566;9.980;2023-03-07T17:16:24;4.53;;;3.72;;
20462;SDS011;10390;53.566;9.980;2023-03-07T17:18:51;4.65;;;4.25;;
20462;SDS011;10390;53.566;9.980;2023-03-07T17:21:17;6.57;;;4.20;;
20462;SDS011;10390;53.566;9.980;2023-03-07T17:23:45;4.97;;;4.10;;
20462;SDS011;10390;53.566;9.980;2023-03-07T17:26:17;4.45;;;3.95;;
20462;SDS011;10390;53.566;9.980;2023-03-07T17:28:54;4.63;;;4.07;;
20462;SDS011;10390;53.566;9.980;2023-03-07T17:31:22;4.65;;;4.25;;